Time;durP1;ratioP1;P1;durP2;ratioP2;P2;SDS_P1;SDS_P2;PMS_P1;PMS_P2;Temp;Humidity;BMP_temperature;BMP_pressure;BME280_temperature;BME280_humidity;BME280_pressure;Samples;Min_cycle;Max_cycle;Signal;HPM_P1;HPM_P2
2021/11/16 00:01:26;;;;;;;54.00;22.47;;;;;;;3.97;100.00;101669.50;5030231;28;20251;-76
2021/11/16 00:03:54;;;;;;;57.97;23.23;;;;;;;3.92;100.00;101672.09;5030317;28;20176;-76
2021/11/16 00:06:21;;;;;;;55.77;23.43;;;;;;;3.92;100.00;101660.47;5030160;28;20208;-75
2021/11/16 00:08:47;;;;;;;54.80;22.20;;;;;;;3.93;100.00;101668.31;5030316;28;20174;-81
2021/11/16 00:11:13;;;;;;;61.70;22.37;;;;;;;3.89;100.00;101661.72;5030351;28;20183;-77
2021/11/16 00:13:39;;;;;;;56.80;22.00;;;;;;;3.92;100.00;101665.88;5030284;28;20168;-76
2021/11/16 00:16:05;;;;;;;58.70;22.70;;;;;;;3.89;100.00;101665.25;5030387;28;20180;-76
2021/11/16 00:18:32;;;;;;;53.83;21.67;;;;;;;3.92;100.00;101663.97;5030570;28;20224;-80
2021/11/16 00:20:59;;;;;;;56.27;22.67;;;;;;;3.94;100.00;101669.97;5030153;28;20255;-76
2021/11/16 00:23:33;;;;;;;48.23;21.40;;;;;;;3.93;100.00;101665.63;5030335;28;20251;-80
2021/11/16 00:26:00;;;;;;;55.43;19.47;;;;;;;3.90;100.00;101666.06;5030123;28;20208;-77
2021/11/16 00:28:25;;;;;;;58.70;21.90;;;;;;;3.90;100.00;101655.25;5030261;28;20246;-77
2021/11/16 00:30:53;;;;;;;58.27;22.90;;;;;;;3.88;100.00;101658.19;5026086;28;20602;-80
2021/11/16 00:33:21;;;;;;;60.20;21.67;;;;;;;3.92;100.00;101657.75;5011453;28;20205;-81
2021/11/16 00:35:46;;;;;;;57.37;22.87;;;;;;;3.89;100.00;101650.91;5014100;28;20642;-78
2021/11/16 00:38:13;;;;;;;66.33;23.23;;;;;;;3.91;100.00;101654.22;5014151;28;20209;-78
2021/11/16 00:40:39;;;;;;;48.43;20.63;;;;;;;3.93;100.00;101652.09;5014128;28;20191;-76
2021/11/16 00:43:08;;;;;;;52.23;23.07;;;;;;;3.90;100.00;101652.56;5014036;28;20236;-77
2021/11/16 00:45:35;;;;;;;57.33;23.57;;;;;;;3.92;100.00;101658.56;5013395;28;20262;-77
2021/11/16 00:48:00;;;;;;;50.43;21.70;;;;;;;3.92;100.00;101652.34;5013747;28;20191;-75
2021/11/16 00:50:26;;;;;;;57.93;21.77;;;;;;;3.92;100.00;101647.75;5014780;28;20176;-75
2021/11/16 00:52:51;;;;;;;56.27;20.43;;;;;;;3.93;100.00;101644.00;5015083;28;20597;-74
2021/11/16 00:55:17;;;;;;;49.77;21.53;;;;;;;3.95;100.00;101652.69;5013644;28;20185;-75
2021/11/16 00:57:43;;;;;;;46.43;20.70;;;;;;;3.93;100.00;101641.28;5013729;28;20196;-75
2021/11/16 01:00:12;;;;;;;60.13;21.50;;;;;;;3.88;100.00;101638.47;5012297;28;20571;-74
2021/11/16 01:02:37;;;;;;;50.77;21.03;;;;;;;3.82;100.00;101639.44;5013520;28;20204;-75
2021/11/16 01:05:04;;;;;;;44.00;20.40;;;;;;;3.84;100.00;101638.13;5013249;28;20188;-74
2021/11/16 01:07:31;;;;;;;53.83;21.00;;;;;;;3.88;100.00;101641.16;5013336;28;20180;-75
2021/11/16 01:09:56;;;;;;;57.87;21.67;;;;;;;3.86;100.00;101630.59;5013576;28;20189;-74
2021/11/16 01:12:23;;;;;;;57.03;21.40;;;;;;;3.86;100.00;101632.47;5013517;28;20180;-74
2021/11/16 01:14:48;;;;;;;65.50;23.27;;;;;;;3.83;100.00;101633.78;5013297;28;20176;-74
2021/11/16 01:17:14;;;;;;;55.80;19.33;;;;;;;3.88;100.00;101635.75;5013756;28;20177;-74
2021/11/16 01:19:40;;;;;;;62.70;20.83;;;;;;;3.85;100.00;101628.94;5013269;28;20172;-74
2021/11/16 01:22:06;;;;;;;48.37;19.37;;;;;;;3.86;100.00;101622.47;5013242;28;20215;-74
2021/11/16 01:24:32;;;;;;;53.70;20.50;;;;;;;3.84;100.00;101615.69;5013240;28;20266;-74
2021/11/16 01:26:57;;;;;;;47.27;21.30;;;;;;;3.85;100.00;101612.72;5013082;28;20538;-74
2021/11/16 01:29:24;;;;;;;46.53;20.67;;;;;;;3.84;100.00;101615.69;5013022;28;20172;-74
2021/11/16 01:31:53;;;;;;;40.77;20.00;;;;;;;3.90;100.00;101614.72;5013046;28;20251;-74
2021/11/16 01:34:24;;;;;;;63.10;24.20;;;;;;;3.84;100.00;101612.97;5012979;28;20431;-75
2021/11/16 01:36:50;;;;;;;55.03;23.17;;;;;;;3.82;100.00;101607.81;5013050;28;20191;-75
2021/11/16 01:39:15;;;;;;;60.70;22.83;;;;;;;3.81;100.00;101600.75;5012348;28;20543;-74
2021/11/16 01:41:41;;;;;;;46.17;19.67;;;;;;;3.88;100.00;101603.31;5012721;28;20187;-75
2021/11/16 01:44:06;;;;;;;52.47;21.53;;;;;;;3.88;100.00;101592.50;5012580;28;20173;-74
2021/11/16 01:46:32;;;;;;;49.97;19.27;;;;;;;3.85;100.00;101604.63;5012031;28;20212;-74
2021/11/16 01:48:58;;;;;;;56.23;21.03;;;;;;;3.86;100.00;101594.63;5012883;28;20538;-74
2021/11/16 01:51:27;;;;;;;52.97;19.23;;;;;;;3.83;100.00;101592.41;5012810;28;20164;-74
2021/11/16 01:54:01;;;;;;;54.03;22.07;;;;;;;3.82;100.00;101590.78;5012824;28;20176;-74
2021/11/16 01:56:31;;;;;;;49.97;19.43;;;;;;;3.86;100.00;101583.81;5013142;28;20212;-73
2021/11/16 01:58:58;;;;;;;51.97;19.63;;;;;;;3.82;100.00;101578.06;5012733;28;20161;-75
2021/11/16 02:01:28;;;;;;;51.93;22.43;;;;;;;3.85;100.00;101582.19;5012538;28;20173;-74
2021/11/16 02:03:54;;;;;;;57.60;21.43;;;;;;;3.88;100.00;101574.41;5012397;28;20267;-74
2021/11/16 02:06:23;;;;;;;55.67;21.43;;;;;;;3.81;100.00;101581.03;5012331;28;20295;-75
2021/11/16 02:08:52;;;;;;;59.03;22.57;;;;;;;3.87;100.00;101574.66;5012366;28;20260;-74
2021/11/16 02:11:17;;;;;;;52.00;19.83;;;;;;;3.86;100.00;101575.72;5012415;28;20581;-74
2021/11/16 02:13:43;;;;;;;52.40;21.03;;;;;;;3.80;100.00;101566.69;5012188;28;20231;-76
2021/11/16 02:16:08;;;;;;;62.70;22.93;;;;;;;3.77;100.00;101563.66;5012380;28;20623;-74
2021/11/16 02:18:35;;;;;;;54.80;21.07;;;;;;;3.77;100.00;101561.75;5012224;28;20308;-73
2021/11/16 02:21:00;;;;;;;55.37;21.87;;;;;;;3.75;100.00;101560.34;5012025;28;20184;-74
2021/11/16 02:23:26;;;;;;;58.73;21.27;;;;;;;3.74;100.00;101558.69;5012190;28;20183;-82
2021/11/16 02:25:51;;;;;;;52.63;19.13;;;;;;;3.75;100.00;101550.34;5011957;28;20196;-78
2021/11/16 02:28:18;;;;;;;70.33;23.87;;;;;;;3.73;100.00;101559.75;5012165;28;20279;-81
2021/11/16 02:30:45;;;;;;;56.13;20.57;;;;;;;3.75;100.00;101550.34;5012185;28;20646;-80
2021/11/16 02:33:10;;;;;;;64.83;23.13;;;;;;;3.74;100.00;101556.00;5012109;28;20177;-81
2021/11/16 02:35:35;;;;;;;55.20;23.13;;;;;;;3.83;100.00;101558.09;5011833;28;20600;-82
2021/11/16 02:38:01;;;;;;;54.27;21.33;;;;;;;3.80;100.00;101545.06;5012252;28;20211;-79
2021/11/16 02:40:27;;;;;;;47.90;20.20;;;;;;;3.79;100.00;101548.81;5010972;28;20358;-81
2021/11/16 02:42:53;;;;;;;61.97;20.47;;;;;;;3.83;100.00;101544.56;5012115;28;20169;-82
2021/11/16 02:45:21;;;;;;;64.87;23.40;;;;;;;3.77;100.00;101542.03;5011602;28;20639;-79
2021/11/16 02:47:46;;;;;;;50.33;19.63;;;;;;;3.86;100.00;101543.28;5011704;28;20179;-82
2021/11/16 02:50:12;;;;;;;50.37;19.47;;;;;;;3.87;100.00;101534.09;5011554;28;20259;-81
2021/11/16 02:52:38;;;;;;;56.30;20.47;;;;;;;3.84;100.00;101534.59;5011698;28;20234;-78
2021/11/16 02:55:07;;;;;;;59.70;21.10;;;;;;;3.87;100.00;101536.81;5011518;28;20172;-82
2021/11/16 02:57:33;;;;;;;49.17;20.07;;;;;;;3.82;100.00;101534.00;5011630;28;20176;-81
2021/11/16 03:00:00;;;;;;;53.53;19.70;;;;;;;3.95;100.00;101541.03;5011462;28;20263;-82
2021/11/16 03:02:26;;;;;;;62.50;23.07;;;;;;;3.97;100.00;101536.19;5011425;28;20179;-79
2021/11/16 03:04:52;;;;;;;44.53;21.00;;;;;;;3.96;100.00;101531.84;5011049;28;20204;-82
2021/11/16 03:07:38;;;;;;;56.03;21.50;;;;;;;3.82;100.00;101534.81;5011353;28;20231;-81
2021/11/16 03:10:04;;;;;;;51.67;19.80;;;;;;;3.86;100.00;101518.94;5013340;28;20594;-82
2021/11/16 03:12:30;;;;;;;55.27;20.37;;;;;;;3.78;100.00;101524.75;5031023;28;20179;-81
2021/11/16 03:14:57;;;;;;;51.83;23.00;;;;;;;3.68;100.00;101521.81;5030879;28;20172;-80
2021/11/16 03:17:24;;;;;;;72.80;23.93;;;;;;;3.67;100.00;101518.31;5030984;28;20199;-79
2021/11/16 03:19:50;;;;;;;62.93;21.77;;;;;;;3.69;100.00;101521.59;5030842;28;20175;-81
2021/11/16 03:22:16;;;;;;;47.60;21.13;;;;;;;3.69;100.00;101523.47;5031071;28;20168;-80
2021/11/16 03:24:42;;;;;;;58.20;23.57;;;;;;;3.67;100.00;101531.00;5030774;28;20226;-78
2021/11/16 03:27:09;;;;;;;70.07;23.83;;;;;;;3.65;100.00;101528.53;5030785;28;20257;-80
2021/11/16 03:29:42;;;;;;;53.13;20.73;;;;;;;3.64;100.00;101526.06;5030801;28;20168;-82
2021/11/16 03:32:10;;;;;;;68.40;24.37;;;;;;;3.64;100.00;101526.91;5030882;28;20259;-81
2021/11/16 03:34:36;;;;;;;63.13;21.13;;;;;;;3.59;100.00;101521.38;5030610;28;20255;-77
2021/11/16 03:37:03;;;;;;;78.63;24.70;;;;;;;3.58;100.00;101525.94;5030812;28;20275;-81
2021/11/16 03:39:28;;;;;;;59.33;22.17;;;;;;;3.59;100.00;101524.06;5030738;28;20172;-81
2021/11/16 03:41:54;;;;;;;62.73;20.97;;;;;;;3.65;100.00;101530.41;5030837;28;20175;-80
2021/11/16 03:44:20;;;;;;;75.80;23.93;;;;;;;3.63;100.00;101532.53;5029211;28;20178;-77
2021/11/16 03:46:45;;;;;;;60.93;23.27;;;;;;;3.64;100.00;101529.59;5030678;28;20701;-81
2021/11/16 03:49:12;;;;;;;67.00;21.77;;;;;;;3.63;100.00;101524.44;5030658;28;20174;-76
2021/11/16 03:51:40;;;;;;;76.93;24.33;;;;;;;3.63;100.00;101522.56;5030680;28;20163;-81
2021/11/16 03:54:07;;;;;;;64.23;23.10;;;;;;;3.65;100.00;101523.13;5030422;28;20313;-79
2021/11/16 03:56:32;;;;;;;75.80;25.70;;;;;;;3.61;100.00;101513.84;5030537;28;20251;-77
2021/11/16 03:58:58;;;;;;;73.20;24.87;;;;;;;3.60;100.00;101523.00;5030604;28;20262;-78
2021/11/16 04:01:23;;;;;;;62.67;22.63;;;;;;;3.63;100.00;101524.44;5030518;28;20179;-75
2021/11/16 04:03:49;;;;;;;66.20;21.50;;;;;;;3.67;100.00;101525.59;5030363;28;20194;-77
2021/11/16 04:06:16;;;;;;;65.93;22.60;;;;;;;3.67;100.00;101520.19;5030240;28;20292;-75
2021/11/16 04:08:42;;;;;;;68.60;24.10;;;;;;;3.77;100.00;101528.50;5030860;28;20175;-75
2021/11/16 04:11:07;;;;;;;65.57;23.00;;;;;;;3.76;100.00;101524.97;5034844;28;20202;-75
2021/11/16 04:13:32;;;;;;;51.17;20.83;;;;;;;3.78;100.00;101513.94;5034356;28;20514;-75
2021/11/16 04:15:58;;;;;;;57.27;22.13;;;;;;;3.79;100.00;101521.78;5032890;28;20191;-75
2021/11/16 04:18:23;;;;;;;58.53;21.60;;;;;;;3.71;100.00;101516.75;5034341;28;20172;-76
2021/11/16 04:20:53;;;;;;;72.37;24.20;;;;;;;3.77;100.00;101515.00;5034095;28;20175;-80
2021/11/16 04:23:19;;;;;;;57.47;21.37;;;;;;;3.73;100.00;101517.34;5034316;28;20878;-79
2021/11/16 04:25:45;;;;;;;56.07;20.60;;;;;;;3.75;100.00;101517.91;5034107;28;20338;-81
2021/11/16 04:28:12;;;;;;;66.73;22.77;;;;;;;3.77;100.00;101520.41;5034012;28;20624;-80
2021/11/16 04:30:38;;;;;;;74.07;22.47;;;;;;;3.81;100.00;101508.03;5032965;28;20554;-79
2021/11/16 04:33:05;;;;;;;70.93;22.57;;;;;;;3.93;100.00;101513.41;5033963;28;20217;-79
2021/11/16 04:35:31;;;;;;;61.47;20.60;;;;;;;4.05;100.00;101512.31;5033728;28;20168;-76
2021/11/16 04:37:59;;;;;;;56.93;21.73;;;;;;;3.99;100.00;101502.44;5033760;28;20275;-79
2021/11/16 04:40:31;;;;;;;60.33;22.23;;;;;;;3.91;100.00;101505.53;5033790;28;20973;-78
2021/11/16 04:42:58;;;;;;;67.70;22.90;;;;;;;3.81;100.00;101500.75;5033959;28;20234;-77
2021/11/16 04:45:25;;;;;;;60.07;21.30;;;;;;;3.75;100.00;101495.47;5033631;28;20176;-76
2021/11/16 04:48:03;;;;;;;68.17;23.37;;;;;;;3.67;100.00;101493.16;5033784;28;20180;-79
2021/11/16 04:55:51;;;;;;;56.37;21.93;;;;;;;3.84;100.00;101488.63;5033495;28;20527;-76
2021/11/16 05:03:49;;;;;;;55.53;17.73;;;;;;;3.98;100.00;101481.88;5033328;28;20590;-80
2021/11/16 05:06:14;;;;;;;44.63;19.33;;;;;;;4.04;100.00;101477.38;5033234;28;20223;-77
2021/11/16 05:08:43;;;;;;;52.23;20.17;;;;;;;4.04;100.00;101483.59;5032070;28;20176;-79
2021/11/16 05:11:09;;;;;;;43.30;17.13;;;;;;;3.98;100.00;101487.28;5033173;28;20179;-77
2021/11/16 05:13:35;;;;;;;49.13;17.67;;;;;;;3.83;100.00;101485.09;5033308;28;20204;-77
2021/11/16 05:16:00;;;;;;;52.83;20.47;;;;;;;3.73;100.00;101478.69;5033091;28;20567;-75
2021/11/16 05:18:26;;;;;;;48.77;16.53;;;;;;;3.68;100.00;101478.59;5033202;28;20208;-78
2021/11/16 05:20:51;;;;;;;47.03;18.43;;;;;;;3.67;100.00;101476.94;5031573;28;20172;-79
2021/11/16 05:23:19;;;;;;;63.13;20.90;;;;;;;3.63;100.00;101475.78;5033165;28;20204;-78
2021/11/16 05:25:51;;;;;;;55.37;16.87;;;;;;;3.64;100.00;101474.72;5032411;28;20253;-78
2021/11/16 05:28:18;;;;;;;43.47;17.70;;;;;;;3.64;100.00;101475.56;5032867;28;20180;-76
2021/11/16 05:30:43;;;;;;;58.00;20.43;;;;;;;3.62;100.00;101471.41;5032963;28;20543;-80
2021/11/16 05:33:09;;;;;;;44.97;19.00;;;;;;;3.62;100.00;101476.81;5032934;28;20270;-77
2021/11/16 05:35:34;;;;;;;64.07;20.77;;;;;;;3.63;100.00;101470.38;5032664;28;20242;-80
2021/11/16 05:37:59;;;;;;;56.03;18.97;;;;;;;3.70;100.00;101471.88;5032844;28;20187;-80
2021/11/16 05:40:25;;;;;;;60.50;20.03;;;;;;;3.86;100.00;101468.41;5032909;28;20267;-82
2021/11/16 05:42:51;;;;;;;61.77;21.40;;;;;;;3.77;100.00;101463.66;5032627;28;20275;-78
2021/11/16 05:45:16;;;;;;;58.60;20.17;;;;;;;3.68;100.00;101467.78;5032401;28;20176;-78
2021/11/16 05:47:42;;;;;;;55.37;19.87;;;;;;;3.59;100.00;101460.03;5032668;28;20176;-78
2021/11/16 05:50:09;;;;;;;62.27;19.87;;;;;;;3.57;100.00;101466.75;5032578;28;20167;-78
2021/11/16 05:52:36;;;;;;;61.47;21.37;;;;;;;3.57;100.00;101469.44;5015040;28;20635;-75
2021/11/16 05:55:02;;;;;;;50.87;18.90;;;;;;;3.65;100.00;101470.97;5012563;28;20208;-75
2021/11/16 05:57:27;;;;;;;49.23;18.60;;;;;;;3.78;100.00;101485.03;5012723;28;20181;-77
2021/11/16 05:59:53;;;;;;;52.73;19.07;;;;;;;3.93;100.00;101492.59;5012706;28;20230;-79
2021/11/16 06:02:18;;;;;;;60.33;18.43;;;;;;;3.93;100.00;101495.31;5012678;28;20636;-79
2021/11/16 06:04:44;;;;;;;54.20;17.77;;;;;;;4.05;100.00;101487.97;5012284;28;20184;-76
2021/11/16 06:07:10;;;;;;;51.00;18.33;;;;;;;4.08;100.00;101490.19;5012410;28;20208;-77
2021/11/16 06:09:35;;;;;;;53.13;18.93;;;;;;;4.19;100.00;101496.56;5012407;28;20599;-78
2021/11/16 06:12:03;;;;;;;50.80;18.50;;;;;;;4.21;100.00;101496.38;5012520;28;20295;-80
2021/11/16 06:14:29;;;;;;;60.33;20.27;;;;;;;4.22;100.00;101496.13;5012214;28;20180;-79
2021/11/16 06:16:55;;;;;;;59.00;17.53;;;;;;;4.35;100.00;101508.53;5012460;28;20180;-79
2021/11/16 06:19:25;;;;;;;55.47;19.07;;;;;;;4.38;100.00;101499.91;5012130;28;20181;-79
2021/11/16 06:21:51;;;;;;;46.37;17.83;;;;;;;4.39;100.00;101499.66;5012003;28;20662;-78
2021/11/16 06:24:17;;;;;;;53.30;19.20;;;;;;;4.42;100.00;101507.28;5012165;28;20657;-81
2021/11/16 06:26:42;;;;;;;53.90;19.10;;;;;;;4.42;100.00;101514.59;5017510;28;20203;-83
2021/11/16 06:29:08;;;;;;;35.13;15.60;;;;;;;4.43;100.00;101508.09;5031337;28;20176;-81
2021/11/16 06:31:35;;;;;;;50.93;18.50;;;;;;;4.29;100.00;101507.59;5031206;28;20519;-81
2021/11/16 06:34:03;;;;;;;52.30;18.70;;;;;;;4.39;100.00;101507.78;5031168;28;20180;-81
2021/11/16 06:36:36;;;;;;;58.27;19.63;;;;;;;4.20;100.00;101497.44;5031331;28;20172;-82
2021/11/16 06:39:10;;;;;;;50.53;17.07;;;;;;;4.25;100.00;101501.03;5031265;28;20175;-78
2021/11/16 06:41:36;;;;;;;42.03;18.40;;;;;;;4.20;100.00;101494.72;5031194;28;20174;-77
2021/11/16 06:44:02;;;;;;;46.97;18.50;;;;;;;4.23;100.00;101496.94;5030688;28;20191;-80
2021/11/16 06:46:30;;;;;;;57.73;18.87;;;;;;;4.09;100.00;101488.31;5031042;28;20215;-80
2021/11/16 06:48:57;;;;;;;50.00;18.67;;;;;;;4.01;100.00;101486.78;5031096;28;20537;-82
2021/11/16 06:51:22;;;;;;;49.47;21.27;;;;;;;3.98;100.00;101481.88;5030964;28;20199;-78
2021/11/16 06:53:48;;;;;;;50.33;19.03;;;;;;;4.14;100.00;101486.50;5030554;28;20217;-78
2021/11/16 06:56:13;;;;;;;42.53;17.63;;;;;;;4.31;100.00;101493.81;5030909;28;20207;-76
2021/11/16 06:58:39;;;;;;;37.73;16.07;;;;;;;4.39;100.00;101496.13;5030915;28;20198;-75
2021/11/16 07:01:05;;;;;;;53.90;16.93;;;;;;;4.37;100.00;101492.84;5030817;28;20867;-77
2021/11/16 07:03:31;;;;;;;38.67;16.33;;;;;;;4.37;100.00;101490.97;5030913;28;20210;-78
2021/11/16 07:06:00;;;;;;;51.33;20.87;;;;;;;4.29;100.00;101501.34;5030413;28;20212;-74
2021/11/16 07:08:40;;;;;;;54.73;18.50;;;;;;;4.40;100.00;101495.06;5030708;28;20184;-76
2021/11/16 07:11:17;;;;;;;44.20;19.20;;;;;;;4.42;100.00;101501.88;5030792;28;20654;-75
2021/11/16 07:14:02;;;;;;;43.53;18.00;;;;;;;4.43;100.00;101502.69;5030449;28;20657;-78
2021/11/16 07:16:39;;;;;;;51.70;17.97;;;;;;;4.32;100.00;101498.97;5030642;28;20167;-76
2021/11/16 07:19:08;;;;;;;49.20;17.07;;;;;;;4.43;100.00;101498.09;5030077;28;20233;-78
2021/11/16 07:21:48;;;;;;;53.73;17.07;;;;;;;4.42;100.00;101495.66;5030490;28;20176;-78
2021/11/16 07:24:19;;;;;;;34.73;14.83;;;;;;;4.45;100.00;101505.97;5030103;28;20164;-77
2021/11/16 07:27:01;;;;;;;42.20;17.60;;;;;;;4.39;100.00;101502.38;5030484;28;20211;-80
2021/11/16 07:29:38;;;;;;;34.80;16.20;;;;;;;4.33;100.00;101497.91;5030409;28;20186;-79
2021/11/16 07:32:10;;;;;;;50.17;19.10;;;;;;;4.34;100.00;101505.00;5030749;28;20166;-76
2021/11/16 07:34:38;;;;;;;37.80;16.10;;;;;;;4.25;100.00;101497.50;5029061;28;20187;-77
2021/11/16 07:37:07;;;;;;;47.37;18.87;;;;;;;4.24;100.00;101502.09;5030665;28;20175;-78
2021/11/16 07:40:03;;;;;;;53.70;17.83;;;;;;;4.13;100.00;101498.38;5030399;28;20176;-77
2021/11/16 07:42:35;;;;;;;49.53;17.70;;;;;;;3.98;100.00;101500.81;5029886;28;20657;-77
2021/11/16 07:45:12;;;;;;;39.00;17.23;;;;;;;3.96;100.00;101496.69;5030560;28;20191;-77
2021/11/16 07:47:43;;;;;;;47.63;17.63;;;;;;;4.06;100.00;101491.50;5030612;28;20207;-75
2021/11/16 07:50:12;;;;;;;40.13;19.57;;;;;;;4.23;100.00;101494.22;5030733;28;20606;-76
2021/11/16 07:52:38;;;;;;;50.53;17.87;;;;;;;4.17;100.00;101496.81;5030075;28;20258;-77
2021/11/16 07:55:05;;;;;;;48.00;18.73;;;;;;;4.20;100.00;101500.94;5030095;28;20635;-76
2021/11/16 07:57:42;;;;;;;55.80;19.47;;;;;;;4.31;100.00;101508.16;5030202;28;20175;-77
2021/11/16 08:00:17;;;;;;;43.77;17.47;;;;;;;4.18;100.00;101497.66;5030670;28;20639;-77
2021/11/16 08:02:44;;;;;;;56.17;19.50;;;;;;;4.02;100.00;101507.34;5030201;28;20178;-79
2021/11/16 08:05:33;;;;;;;43.27;15.47;;;;;;;4.27;100.00;101503.50;5029830;28;20184;-76
2021/11/16 08:08:21;;;;;;;46.77;16.83;;;;;;;4.36;100.00;101504.75;5030425;28;20196;-79
2021/11/16 08:10:55;;;;;;;45.33;17.53;;;;;;;4.45;100.00;101519.50;5009122;28;20562;-76
2021/11/16 08:13:29;;;;;;;43.33;18.70;;;;;;;4.51;100.00;101512.31;5008573;28;20234;-74
2021/11/16 08:16:06;;;;;;;51.93;21.43;;;;;;;4.61;100.00;101518.69;5004185;28;20184;-74
2021/11/16 08:18:43;;;;;;;46.27;16.73;;;;;;;4.46;100.00;101507.59;5010617;28;20644;-76
2021/11/16 08:21:09;;;;;;;43.37;14.80;;;;;;;4.13;100.00;101500.25;5010327;28;20169;-76
2021/11/16 08:23:35;;;;;;;41.57;16.10;;;;;;;4.17;100.00;101504.94;5010534;28;20180;-75
2021/11/16 08:26:00;;;;;;;37.13;15.33;;;;;;;4.25;100.00;101505.63;5010440;28;20567;-75
2021/11/16 08:28:26;;;;;;;30.13;14.87;;;;;;;4.54;100.00;101515.34;5009678;28;20540;-78
2021/11/16 08:30:53;;;;;;;49.50;17.07;;;;;;;4.66;100.00;101516.09;5019469;28;20180;-77
2021/11/16 08:33:19;;;;;;;38.13;15.23;;;;;;;4.70;100.00;101519.13;5029764;28;20398;-78
2021/11/16 08:35:48;;;;;;;26.97;13.63;;;;;;;4.78;100.00;101524.97;5028127;28;20188;-77
2021/11/16 08:38:14;;;;;;;35.57;15.30;;;;;;;4.77;100.00;101512.50;5029513;28;20262;-76
2021/11/16 08:40:45;;;;;;;42.87;15.50;;;;;;;4.64;100.00;101515.53;5029103;28;20267;-76
2021/11/16 08:43:15;;;;;;;33.70;16.00;;;;;;;4.73;100.00;101516.72;5028422;28;20176;-76
2021/11/16 08:45:46;;;;;;;33.03;14.63;;;;;;;4.63;100.00;101502.19;5029522;28;20703;-77
2021/11/16 08:48:30;;;;;;;37.07;15.23;;;;;;;4.74;100.00;101496.72;5029831;28;20190;-77
2021/11/16 08:51:03;;;;;;;39.37;15.03;;;;;;;4.80;100.00;101502.22;5029759;28;20171;-77
2021/11/16 08:53:31;;;;;;;32.43;14.57;;;;;;;4.87;100.00;101511.00;5029698;28;20171;-78
2021/11/16 08:55:58;;;;;;;44.93;15.97;;;;;;;4.92;100.00;101509.19;5032821;28;20171;-76
2021/11/16 08:58:28;;;;;;;30.87;13.90;;;;;;;4.86;100.00;101506.63;5033040;28;20206;-76
2021/11/16 09:01:01;;;;;;;28.87;13.20;;;;;;;4.73;100.00;101505.91;5033569;28;20182;-78
2021/11/16 09:03:33;;;;;;;28.97;13.03;;;;;;;4.64;100.00;101501.16;5033068;28;20176;-76
2021/11/16 09:06:00;;;;;;;38.77;14.13;;;;;;;4.54;100.00;101492.88;5032661;28;20204;-77
2021/11/16 09:08:31;;;;;;;33.33;12.07;;;;;;;4.56;100.00;101494.25;5033021;28;20172;-76
2021/11/16 09:11:03;;;;;;;20.47;12.17;;;;;;;4.52;100.00;101484.19;5032848;28;20163;-77
2021/11/16 09:13:31;;;;;;;33.33;14.23;;;;;;;4.48;100.00;101486.53;5032796;28;20170;-76
2021/11/16 09:16:03;;;;;;;42.67;14.70;;;;;;;4.47;100.00;101477.59;5032368;28;20211;-77
2021/11/16 09:18:37;;;;;;;27.17;13.50;;;;;;;4.44;100.00;101483.50;5032560;28;20164;-76
2021/11/16 09:21:08;;;;;;;31.47;13.77;;;;;;;4.42;100.00;101487.53;5032198;28;20604;-77
2021/11/16 09:23:44;;;;;;;31.07;13.40;;;;;;;4.37;100.00;101480.16;5032609;28;20172;-76
2021/11/16 09:29:02;;;;;;;35.03;13.37;;;;;;;4.34;100.00;101483.34;5033159;28;20271;-76
2021/11/16 09:31:39;;;;;;;33.10;13.43;;;;;;;4.25;100.00;101468.56;5032353;28;20176;-75
2021/11/16 09:34:16;;;;;;;34.10;13.30;;;;;;;4.18;100.00;101473.31;5032257;28;20175;-75
2021/11/16 09:36:53;;;;;;;36.90;12.37;;;;;;;4.11;100.00;101476.16;5032525;28;20622;-74
2021/11/16 09:39:22;;;;;;;26.90;12.27;;;;;;;4.09;100.00;101474.78;5032510;28;20578;-76
2021/11/16 09:41:53;;;;;;;33.10;13.47;;;;;;;4.10;100.00;101469.13;5032310;28;20180;-76
2021/11/16 09:44:26;;;;;;;31.70;12.57;;;;;;;4.06;100.00;101472.56;5032152;28;20260;-75
2021/11/16 09:47:04;;;;;;;38.07;14.53;;;;;;;4.05;100.00;101470.91;5032212;28;20581;-77
2021/11/16 09:49:32;;;;;;;30.63;13.77;;;;;;;4.03;100.00;101465.75;5032283;28;20623;-75
2021/11/16 09:52:01;;;;;;;31.07;13.77;;;;;;;4.04;100.00;101453.03;5031609;28;20654;-76
2021/11/16 09:54:27;;;;;;;30.67;12.37;;;;;;;4.06;100.00;101454.47;5031398;28;20269;-75
2021/11/16 09:57:13;;;;;;;25.80;14.03;;;;;;;4.01;100.00;101450.81;5032238;28;20188;-76
2021/11/16 09:59:41;;;;;;;36.47;13.30;;;;;;;4.03;100.00;101452.22;5031110;28;20183;-75
2021/11/16 10:02:13;;;;;;;36.83;14.63;;;;;;;4.07;100.00;101458.81;5031995;28;20258;-79
2021/11/16 10:04:46;;;;;;;34.80;15.03;;;;;;;4.07;100.00;101455.28;5031512;28;20670;-74
2021/11/16 10:07:13;;;;;;;42.77;13.43;;;;;;;4.06;100.00;101462.56;5031301;28;20208;-78
2021/11/16 10:09:41;;;;;;;36.83;13.70;;;;;;;4.10;100.00;101463.72;5031863;28;20178;-77
2021/11/16 10:12:07;;;;;;;32.97;14.17;;;;;;;4.14;100.00;101464.03;5031756;28;20186;-77
2021/11/16 10:14:33;;;;;;;34.77;13.83;;;;;;;4.22;100.00;101457.44;5031611;28;20306;-78
2021/11/16 10:16:58;;;;;;;40.50;14.67;;;;;;;4.27;100.00;101458.31;5031858;28;20255;-75
2021/11/16 10:19:24;;;;;;;32.50;15.30;;;;;;;4.31;100.00;101458.66;5031134;28;20176;-74
2021/11/16 10:21:49;;;;;;;32.87;15.73;;;;;;;4.31;100.00;101466.75;5031645;28;20172;-75
2021/11/16 10:24:26;;;;;;;27.97;13.87;;;;;;;4.37;100.00;101457.69;5031408;28;20267;-75
2021/11/16 10:26:57;;;;;;;30.20;11.70;;;;;;;4.42;100.00;101466.69;5031488;28;20204;-74
2021/11/16 10:29:23;;;;;;;37.60;14.47;;;;;;;4.45;100.00;101457.28;5031441;28;20187;-75
2021/11/16 10:31:49;;;;;;;34.50;13.53;;;;;;;4.43;100.00;101449.41;5030275;28;20180;-74
2021/11/16 10:34:17;;;;;;;35.47;12.77;;;;;;;4.45;100.00;101447.25;5031121;28;20175;-75
2021/11/16 10:36:43;;;;;;;33.43;13.27;;;;;;;4.50;100.00;101446.53;5031404;28;20535;-75
2021/11/16 10:39:09;;;;;;;35.30;13.37;;;;;;;4.61;100.00;101455.63;5018812;28;20659;-74
2021/11/16 10:41:38;;;;;;;38.10;16.10;;;;;;;4.65;100.00;101454.91;5011603;28;20184;-78
2021/11/16 10:44:12;;;;;;;30.00;11.73;;;;;;;4.63;100.00;101448.06;5011494;28;20173;-79
2021/11/16 10:46:45;;;;;;;28.50;12.80;;;;;;;4.63;100.00;101443.50;5011592;28;20701;-79
2021/11/16 10:49:16;;;;;;;26.63;13.13;;;;;;;4.72;100.00;101435.78;5011818;28;20262;-77
2021/11/16 10:51:48;;;;;;;28.90;12.57;;;;;;;4.73;100.00;101443.66;5010414;28;20177;-75
2021/11/16 10:54:15;;;;;;;27.23;9.67;;;;;;;4.57;100.00;101435.53;5011449;28;20204;-77
2021/11/16 10:56:42;;;;;;;28.17;11.70;;;;;;;4.38;100.00;101426.88;5011655;28;20172;-73
2021/11/16 10:59:14;;;;;;;22.80;11.87;;;;;;;4.44;100.00;101423.97;5011796;28;20169;-74
2021/11/16 11:01:52;;;;;;;27.10;11.70;;;;;;;4.46;100.00;101424.56;5027068;28;20179;-76
2021/11/16 11:04:22;;;;;;;24.87;11.70;;;;;;;4.51;100.00;101420.31;5031039;28;20199;-75
2021/11/16 11:06:52;;;;;;;24.20;11.83;;;;;;;4.42;100.00;101412.59;5031058;28;20204;-73
2021/11/16 11:09:21;;;;;;;21.00;11.53;;;;;;;4.40;100.00;101413.91;5031353;28;20712;-74
2021/11/16 11:11:49;;;;;;;22.03;12.00;;;;;;;4.39;100.00;101409.56;5029783;28;20171;-73
2021/11/16 11:14:20;;;;;;;16.30;8.67;;;;;;;4.35;100.00;101414.66;5030971;28;20176;-74
2021/11/16 11:16:59;;;;;;;15.77;9.27;;;;;;;4.37;100.00;101411.69;5031018;28;20670;-77
2021/11/16 11:19:27;;;;;;;13.23;9.40;;;;;;;4.36;100.00;101410.06;5030087;28;20553;-73
2021/11/16 11:22:05;;;;;;;17.90;9.07;;;;;;;4.28;100.00;101405.06;5030970;28;20172;-73
2021/11/16 11:24:40;;;;;;;19.80;9.53;;;;;;;4.24;100.00;101395.78;5030955;28;20524;-73
2021/11/16 11:29:57;;;;;;;23.33;10.90;;;;;;;4.37;100.00;101398.19;5011424;28;20199;-74
2021/11/16 11:32:36;;;;;;;18.70;8.77;;;;;;;4.33;100.00;101394.31;5030816;28;20720;-73